Airfield :
LOGIN :

Register | Disclaimer

   EN    FR    IT 

 










Legend :    VFR   Marginal VFR   IFR   Intensive IFR   Very Intensive IFR
Visi :
Ceiling :
>= 8 km
>= 3000ft
5 to 8 km
1000 to 3000 ft
1500m to 5 km
500 to 1000 ft
800 to 1500m
200 to 500 ft
< 800m
< 200 ft
Symbols :   Thunderstorms  Fog  Heavy snow  Heavy precipitations  Wind > 20 kt
SIGMETs :     Misc.  Thunderstorms  Icing  Turbulence  Mountain Waves  Volcanic Ashes






- Airport Elevation : 101 ft
- IATA code : HAD


ESMT - Halmstad

CURRENT METAR :
  • 282250Z AUTO 19003KT 9999 FEW037/// BKN066/// 12/11 Q1014

EXPIRED METARs :
  • 282220Z AUTO VRB01KT 9999 FEW018/// SCT034/// OVC066/// 13/12 Q1014
  • 282150Z AUTO 21002KT 9999 FEW020/// BKN064/// 13/12 Q1015
  • 282120Z AUTO VRB02KT 9999 FEW018/// SCT025/// BKN034/// 14/12 Q1015
  • 282050Z AUTO 27004KT 9999 FEW016/// SCT020/// BKN025/// 13/12 Q1015
  • 282020Z AUTO 28002KT 9999 FEW012/// SCT021/// BKN025/// 13/12 Q1015
  • 281950Z AUTO 27005KT 9999 FEW008/// SCT019/// BKN023/// 13/12 Q1015
  • 281920Z AUTO 26008KT 9999 -DZ FEW006/// SCT011/// BKN013/// 13/12 Q1015
  • 281850Z AUTO 24007KT 4800 +RA FEW012/// SCT017/// BKN021/// 14/13 Q1014
  • 281820Z AUTO 26007KT 6000 DZ FEW012/// SCT017/// BKN020/// 14/13 Q1014
  • 281750Z AUTO 25010KT 9999 FEW013/// OVC020/// 15/12 Q1014

Expired Forecast.



MET'MAP, your aeronautical weather chart ! - Copyright ORBIFLY December 2007 - Disclaimer

ORBIFLY MET'MAP TEAM :

Programming & Development : Alexandra Zaïnal
Original concept : Baudouin d'Aumeries
Technical & hardware support : Manuel Goepfert
Assistance : Marc-Olivier Méhu




SOURCES & CREDITS :

   NOAA